Ice — ZCOE9 — position and weather

sailwx.info

Track history (hours):
 
Tides and Currents Weather Stations Pressure Air Temp Water Temp Dewpoint Dewpoint Depression Visibility Wind Speed Wind Dir Waves Ship Positions

Ice

Last reported at 2014-Aug-20 00:15 UTC. Time now 2014-Aug-20 10:46 UTC.
Position N 41°19' E 009°05'.

Length 90 m; draft 5 m.

Type: Other ship. MMSI: 319411000.

Date/timePositionNaut miles runAvg speedWind from/ knotsBaromVisibWave heightAir tempDewpointWater temp
2014-Aug-20 00:15N 41°19' E 009°05'1011.4
2014-Aug-19 23:20N 41°20' E 009°19'11 8.5
2014-Aug-19 22:03N 41°16' E 009°33'  
2014-Aug-17 03:34N 43°04' E 009°22'1515.1
2014-Aug-17 02:33N 43°05' E 009°01'1615.5
2014-Aug-17 01:31N 43°06' E 008°39'1615.4
2014-Aug-17 00:29N 43°08' E 008°18'4615.4
2014-Aug-16 21:31N 43°11' E 007°15'1415.0
2014-Aug-16 20:33N 43°13' E 006°56'1110.9
2014-Aug-16 19:33N 43°14' E 006°41'0 0.0
2014-Aug-16 18:33N 43°14' E 006°41'0 0.0
2014-Aug-16 17:25N 43°14' E 006°41'0 0.0
2014-Aug-16 16:31N 43°14' E 006°41'0 0.0
2014-Aug-16 15:32N 43°14' E 006°41'0 0.0
2014-Aug-16 14:33N 43°14' E 006°41'0 0.0
2014-Aug-16 13:27N 43°14' E 006°41'0 0.0
2014-Aug-16 12:28N 43°14' E 006°41'0 0.0
2014-Aug-16 11:32N 43°14' E 006°41'0 0.0
2014-Aug-16 10:32N 43°14' E 006°41'0 0.0
2014-Aug-16 09:33N 43°14' E 006°41'0 0.0
2014-Aug-16 08:28N 43°14' E 006°41'0 0.0
2014-Aug-16 07:31N 43°14' E 006°41'0 0.0
2014-Aug-16 06:32N 43°14' E 006°41'0 0.0
2014-Aug-16 05:33N 43°14' E 006°41'0 0.0
2014-Aug-16 04:33N 43°14' E 006°41'5 5.4
2014-Aug-16 03:33N 43°18' E 006°47'7 7.3
2014-Aug-16 02:33N 43°24' E 006°52'8 8.3
2014-Aug-16 01:33N 43°27' E 007°03'7 7.1
2014-Aug-16 00:33N 43°32' E 007°10'4 4.0
2014-Aug-15 23:32N 43°36' E 007°08'0 0.1
2014-Aug-15 22:27N 43°36' E 007°08'0 0.0
2014-Aug-15 21:28N 43°36' E 007°08'0 0.0
2014-Aug-15 20:28N 43°36' E 007°08'0 0.0
2014-Aug-15 19:29N 43°36' E 007°08'0 0.0
2014-Aug-15 18:24N 43°36' E 007°08'0 0.0
2014-Aug-15 17:30N 43°36' E 007°08'2 1.9
2014-Aug-15 16:33N 43°34' E 007°09'0 0.0
2014-Aug-15 15:33N 43°34' E 007°09'0 0.0
2014-Aug-15 14:33N 43°34' E 007°09'0 0.0
2014-Aug-15 13:33N 43°34' E 007°09'0 0.0
2014-Aug-15 12:33N 43°34' E 007°09'0 0.2
2014-Aug-15 11:33N 43°34' E 007°09'0 0.1
2014-Aug-15 10:33N 43°34' E 007°09'0 0.0
2014-Aug-15 09:33N 43°34' E 007°09'0 0.0
2014-Aug-15 08:33N 43°34' E 007°09'0 0.2
2014-Aug-15 07:33N 43°34' E 007°09'1414.2
2014-Aug-15 06:32N 43°38' E 007°28'6615.1
2014-Aug-15 02:07N 43°20' E 008°56'915.2
2014-Aug-15 01:32N 43°15' E 009°06'14 0.6
2014-Aug-14 01:16N 43°06' E 009°21'9113.5
2014-Aug-13 18:32N 43°32' E 007°22'10 9.8
2014-Aug-13 17:29N 43°35' E 007°08'0 0.0
2014-Aug-13 16:30N 43°35' E 007°08'0 0.0
2014-Aug-13 15:30N 43°35' E 007°08'0 0.0
2014-Aug-13 14:31N 43°35' E 007°08'0 0.0
2014-Aug-13 13:32N 43°35' E 007°08'0 0.0
2014-Aug-13 12:26N 43°35' E 007°08'0 0.1
2014-Aug-13 11:33N 43°35' E 007°08'0 0.0
2014-Aug-13 10:22N 43°35' E 007°08'0 0.1
2014-Aug-13 09:28N 43°35' E 007°08'0 0.0
2014-Aug-13 08:23N 43°35' E 007°08'0 0.0
2014-Aug-13 07:30N 43°35' E 007°08'0 0.1
2014-Aug-13 06:30N 43°35' E 007°08'3 3.5
2014-Aug-13 05:33N 43°32' E 007°08'2 1.9
2014-Aug-13 04:33N 43°33' E 007°06'0 0.0
2014-Aug-13 03:33N 43°33' E 007°06'0 0.0
2014-Aug-13 02:33N 43°33' E 007°06'0 0.0
2014-Aug-13 01:33N 43°33' E 007°06'0 0.0
2014-Aug-13 00:33N 43°33' E 007°06'0 0.0
2014-Aug-12 23:33N 43°33' E 007°06'0 0.0
2014-Aug-12 22:33N 43°33' E 007°06'0 0.0
2014-Aug-12 21:33N 43°33' E 007°06'0 0.0
2014-Aug-12 20:33N 43°33' E 007°06'0 0.0
2014-Aug-12 19:33N 43°33' E 007°06'0 0.0
2014-Aug-12 18:33N 43°33' E 007°06'0 0.0
2014-Aug-12 17:33N 43°33' E 007°06'0 0.0
2014-Aug-12 16:33N 43°33' E 007°06'0 0.1
2014-Aug-12 15:33N 43°33' E 007°06'0 0.0
2014-Aug-12 14:33N 43°33' E 007°06'0 0.0
2014-Aug-12 13:33N 43°33' E 007°06'0 0.0
2014-Aug-12 12:33N 43°33' E 007°06'0 0.0
2014-Aug-12 11:33N 43°33' E 007°06'0 0.0
2014-Aug-12 10:33N 43°33' E 007°06'0 0.0
2014-Aug-12 09:33N 43°33' E 007°06'0 0.0
2014-Aug-12 08:33N 43°33' E 007°06'0 0.0
2014-Aug-12 07:33N 43°33' E 007°06'0 0.0
2014-Aug-12 06:33N 43°33' E 007°06'0 0.0
2014-Aug-12 05:33N 43°33' E 007°06'0 0.0
2014-Aug-12 04:33N 43°33' E 007°06'0 0.0
2014-Aug-12 03:33N 43°33' E 007°06'0 0.0
2014-Aug-12 02:33N 43°33' E 007°06'0 0.0
2014-Aug-12 01:33N 43°33' E 007°06'0 0.0
2014-Aug-12 00:33N 43°33' E 007°06'0 0.0
2014-Aug-11 23:33N 43°33' E 007°06'0 0.0
2014-Aug-11 22:33N 43°33' E 007°06'0 0.0
2014-Aug-11 21:33N 43°33' E 007°06'0 0.0
2014-Aug-11 20:33N 43°33' E 007°06'0 0.0
2014-Aug-11 19:33N 43°33' E 007°06'0 0.0
2014-Aug-11 18:33N 43°33' E 007°06'0 0.0
2014-Aug-11 17:33N 43°33' E 007°06'0 0.0
2014-Aug-11 16:33N 43°33' E 007°06'0 0.0
2014-Aug-11 15:33N 43°33' E 007°06'0 0.0
2014-Aug-11 14:33N 43°33' E 007°06'0 0.0
2014-Aug-11 13:33N 43°33' E 007°06'0 0.0
2014-Aug-11 12:33N 43°33' E 007°06'0 0.0
2014-Aug-11 11:33N 43°33' E 007°06'0 0.0
2014-Aug-11 10:33N 43°33' E 007°06'0 0.0
2014-Aug-11 09:33N 43°33' E 007°06'0 0.0
2014-Aug-11 08:33N 43°33' E 007°06'0 0.0
2014-Aug-11 07:33N 43°33' E 007°06'0 0.0
2014-Aug-11 06:33N 43°33' E 007°06'0 0.0
2014-Aug-11 05:33N 43°33' E 007°06'0 0.0
2014-Aug-11 04:33N 43°33' E 007°06'0 0.0
2014-Aug-11 03:33N 43°33' E 007°06'7 6.7
2014-Aug-11 02:33N 43°28' E 007°01'1010.1
2014-Aug-11 01:33N 43°22' E 006°49'1010.4
2014-Aug-11 00:33N 43°17' E 006°37'0 0.3
2014-Aug-10 23:31N 43°16' E 006°37'0 0.0
2014-Aug-10 22:32N 43°16' E 006°37'0 0.0
2014-Aug-10 21:27N 43°16' E 006°37'0 0.0
2014-Aug-10 20:33N 43°16' E 006°37'0 0.0
2014-Aug-10 19:31N 43°16' E 006°37'0 0.0
2014-Aug-10 18:32N 43°16' E 006°37'0 0.0
2014-Aug-10 17:32N 43°16' E 006°37'0 0.0
2014-Aug-10 16:33N 43°16' E 006°37'0 0.0
2014-Aug-10 15:28N 43°16' E 006°37'2 1.8
2014-Aug-10 14:33N 43°17' E 006°38'1515.0
2014-Aug-10 13:33N 43°26' E 006°55'1110.9
2014-Aug-10 12:33N 43°33' E 007°06'0 0.0
2014-Aug-10 11:30N 43°33' E 007°06'0 0.0
2014-Aug-10 10:31N 43°33' E 007°06'0 0.0
2014-Aug-10 09:32N 43°33' E 007°06'0 0.0
2014-Aug-10 08:32N 43°33' E 007°06'0 0.0
2014-Aug-10 07:27N 43°33' E 007°06'0 0.0
2014-Aug-10 06:28N 43°33' E 007°06'0 0.1
2014-Aug-10 05:33N 43°33' E 007°06'9 9.4
2014-Aug-10 04:33N 43°25' E 007°12'1210.7
2014-Aug-10 03:26N 43°14' E 007°20'1213.9
2014-Aug-10 02:32N 43°03' E 007°28'1413.9
2014-Aug-10 01:34N 42°52' E 007°38'1413.8
2014-Aug-10 00:33N 42°40' E 007°47'  
Track history (hours):
 
Tides and Currents Weather Stations Pressure Air Temp Water Temp Dewpoint Dewpoint Depression Visibility Wind Speed Wind Dir Waves Ship Positions

Ice

Last reported at 2014-Aug-20 00:15 UTC. Time now 2014-Aug-20 10:46 UTC.
Position N 41°19' E 009°05'.

Length 90 m; draft 5 m.

Type: Other ship. MMSI: 319411000.

Date/timePositionNaut miles runAvg speedWind from/ knotsBaromVisibWave heightAir tempDewpointWater temp
2014-Aug-20 00:15N 41°19' E 009°05'1011.4
2014-Aug-19 23:20N 41°20' E 009°19'11 8.5
2014-Aug-19 22:03N 41°16' E 009°33'  
2014-Aug-17 03:34N 43°04' E 009°22'1515.1
2014-Aug-17 02:33N 43°05' E 009°01'1615.5
2014-Aug-17 01:31N 43°06' E 008°39'1615.4
2014-Aug-17 00:29N 43°08' E 008°18'4615.4
2014-Aug-16 21:31N 43°11' E 007°15'1415.0
2014-Aug-16 20:33N 43°13' E 006°56'1110.9
2014-Aug-16 19:33N 43°14' E 006°41'0 0.0
2014-Aug-16 18:33N 43°14' E 006°41'0 0.0
2014-Aug-16 17:25N 43°14' E 006°41'0 0.0
2014-Aug-16 16:31N 43°14' E 006°41'0 0.0
2014-Aug-16 15:32N 43°14' E 006°41'0 0.0
2014-Aug-16 14:33N 43°14' E 006°41'0 0.0
2014-Aug-16 13:27N 43°14' E 006°41'0 0.0
2014-Aug-16 12:28N 43°14' E 006°41'0 0.0
2014-Aug-16 11:32N 43°14' E 006°41'0 0.0
2014-Aug-16 10:32N 43°14' E 006°41'0 0.0
2014-Aug-16 09:33N 43°14' E 006°41'0 0.0
2014-Aug-16 08:28N 43°14' E 006°41'0 0.0
2014-Aug-16 07:31N 43°14' E 006°41'0 0.0
2014-Aug-16 06:32N 43°14' E 006°41'0 0.0
2014-Aug-16 05:33N 43°14' E 006°41'0 0.0
2014-Aug-16 04:33N 43°14' E 006°41'5 5.4
2014-Aug-16 03:33N 43°18' E 006°47'7 7.3
2014-Aug-16 02:33N 43°24' E 006°52'8 8.3
2014-Aug-16 01:33N 43°27' E 007°03'7 7.1
2014-Aug-16 00:33N 43°32' E 007°10'4 4.0
2014-Aug-15 23:32N 43°36' E 007°08'0 0.1
2014-Aug-15 22:27N 43°36' E 007°08'0 0.0
2014-Aug-15 21:28N 43°36' E 007°08'0 0.0
2014-Aug-15 20:28N 43°36' E 007°08'0 0.0
2014-Aug-15 19:29N 43°36' E 007°08'0 0.0
2014-Aug-15 18:24N 43°36' E 007°08'0 0.0
2014-Aug-15 17:30N 43°36' E 007°08'2 1.9
2014-Aug-15 16:33N 43°34' E 007°09'0 0.0
2014-Aug-15 15:33N 43°34' E 007°09'0 0.0
2014-Aug-15 14:33N 43°34' E 007°09'0 0.0
2014-Aug-15 13:33N 43°34' E 007°09'0 0.0
2014-Aug-15 12:33N 43°34' E 007°09'0 0.2
2014-Aug-15 11:33N 43°34' E 007°09'0 0.1
2014-Aug-15 10:33N 43°34' E 007°09'0 0.0
2014-Aug-15 09:33N 43°34' E 007°09'0 0.0
2014-Aug-15 08:33N 43°34' E 007°09'0 0.2
2014-Aug-15 07:33N 43°34' E 007°09'1414.2
2014-Aug-15 06:32N 43°38' E 007°28'6615.1
2014-Aug-15 02:07N 43°20' E 008°56'915.2
2014-Aug-15 01:32N 43°15' E 009°06'14 0.6
2014-Aug-14 01:16N 43°06' E 009°21'9113.5
2014-Aug-13 18:32N 43°32' E 007°22'10 9.8
2014-Aug-13 17:29N 43°35' E 007°08'0 0.0
2014-Aug-13 16:30N 43°35' E 007°08'0 0.0
2014-Aug-13 15:30N 43°35' E 007°08'0 0.0
2014-Aug-13 14:31N 43°35' E 007°08'0 0.0
2014-Aug-13 13:32N 43°35' E 007°08'0 0.0
2014-Aug-13 12:26N 43°35' E 007°08'0 0.1
2014-Aug-13 11:33N 43°35' E 007°08'0 0.0
2014-Aug-13 10:22N 43°35' E 007°08'0 0.1
2014-Aug-13 09:28N 43°35' E 007°08'0 0.0
2014-Aug-13 08:23N 43°35' E 007°08'0 0.0
2014-Aug-13 07:30N 43°35' E 007°08'0 0.1
2014-Aug-13 06:30N 43°35' E 007°08'3 3.5
2014-Aug-13 05:33N 43°32' E 007°08'2 1.9
2014-Aug-13 04:33N 43°33' E 007°06'0 0.0
2014-Aug-13 03:33N 43°33' E 007°06'0 0.0
2014-Aug-13 02:33N 43°33' E 007°06'0 0.0
2014-Aug-13 01:33N 43°33' E 007°06'0 0.0
2014-Aug-13 00:33N 43°33' E 007°06'0 0.0
2014-Aug-12 23:33N 43°33' E 007°06'0 0.0
2014-Aug-12 22:33N 43°33' E 007°06'0 0.0
2014-Aug-12 21:33N 43°33' E 007°06'0 0.0
2014-Aug-12 20:33N 43°33' E 007°06'0 0.0
2014-Aug-12 19:33N 43°33' E 007°06'0 0.0
2014-Aug-12 18:33N 43°33' E 007°06'0 0.0
2014-Aug-12 17:33N 43°33' E 007°06'0 0.0
2014-Aug-12 16:33N 43°33' E 007°06'0 0.1
2014-Aug-12 15:33N 43°33' E 007°06'0 0.0
2014-Aug-12 14:33N 43°33' E 007°06'0 0.0
2014-Aug-12 13:33N 43°33' E 007°06'0 0.0
2014-Aug-12 12:33N 43°33' E 007°06'0 0.0
2014-Aug-12 11:33N 43°33' E 007°06'0 0.0
2014-Aug-12 10:33N 43°33' E 007°06'0 0.0
2014-Aug-12 09:33N 43°33' E 007°06'0 0.0
2014-Aug-12 08:33N 43°33' E 007°06'0 0.0
2014-Aug-12 07:33N 43°33' E 007°06'0 0.0
2014-Aug-12 06:33N 43°33' E 007°06'0 0.0
2014-Aug-12 05:33N 43°33' E 007°06'0 0.0
2014-Aug-12 04:33N 43°33' E 007°06'0 0.0
2014-Aug-12 03:33N 43°33' E 007°06'0 0.0
2014-Aug-12 02:33N 43°33' E 007°06'0 0.0
2014-Aug-12 01:33N 43°33' E 007°06'0 0.0
2014-Aug-12 00:33N 43°33' E 007°06'0 0.0
2014-Aug-11 23:33N 43°33' E 007°06'0 0.0
2014-Aug-11 22:33N 43°33' E 007°06'0 0.0
2014-Aug-11 21:33N 43°33' E 007°06'0 0.0
2014-Aug-11 20:33N 43°33' E 007°06'0 0.0
2014-Aug-11 19:33N 43°33' E 007°06'0 0.0
2014-Aug-11 18:33N 43°33' E 007°06'0 0.0
2014-Aug-11 17:33N 43°33' E 007°06'0 0.0
2014-Aug-11 16:33N 43°33' E 007°06'0 0.0
2014-Aug-11 15:33N 43°33' E 007°06'0 0.0
2014-Aug-11 14:33N 43°33' E 007°06'0 0.0
2014-Aug-11 13:33N 43°33' E 007°06'0 0.0
2014-Aug-11 12:33N 43°33' E 007°06'0 0.0
2014-Aug-11 11:33N 43°33' E 007°06'0 0.0
2014-Aug-11 10:33N 43°33' E 007°06'0 0.0
2014-Aug-11 09:33N 43°33' E 007°06'0 0.0
2014-Aug-11 08:33N 43°33' E 007°06'0 0.0
2014-Aug-11 07:33N 43°33' E 007°06'0 0.0
2014-Aug-11 06:33N 43°33' E 007°06'0 0.0
2014-Aug-11 05:33N 43°33' E 007°06'0 0.0
2014-Aug-11 04:33N 43°33' E 007°06'0 0.0
2014-Aug-11 03:33N 43°33' E 007°06'7 6.7
2014-Aug-11 02:33N 43°28' E 007°01'1010.1
2014-Aug-11 01:33N 43°22' E 006°49'1010.4
2014-Aug-11 00:33N 43°17' E 006°37'0 0.3
2014-Aug-10 23:31N 43°16' E 006°37'0 0.0
2014-Aug-10 22:32N 43°16' E 006°37'0 0.0
2014-Aug-10 21:27N 43°16' E 006°37'0 0.0
2014-Aug-10 20:33N 43°16' E 006°37'0 0.0
2014-Aug-10 19:31N 43°16' E 006°37'0 0.0
2014-Aug-10 18:32N 43°16' E 006°37'0 0.0
2014-Aug-10 17:32N 43°16' E 006°37'0 0.0
2014-Aug-10 16:33N 43°16' E 006°37'0 0.0
2014-Aug-10 15:28N 43°16' E 006°37'2 1.8
2014-Aug-10 14:33N 43°17' E 006°38'1515.0
2014-Aug-10 13:33N 43°26' E 006°55'1110.9
2014-Aug-10 12:33N 43°33' E 007°06'0 0.0
2014-Aug-10 11:30N 43°33' E 007°06'0 0.0
2014-Aug-10 10:31N 43°33' E 007°06'0 0.0
2014-Aug-10 09:32N 43°33' E 007°06'0 0.0
2014-Aug-10 08:32N 43°33' E 007°06'0 0.0
2014-Aug-10 07:27N 43°33' E 007°06'0 0.0
2014-Aug-10 06:28N 43°33' E 007°06'0 0.1
2014-Aug-10 05:33N 43°33' E 007°06'9 9.4
2014-Aug-10 04:33N 43°25' E 007°12'1210.7
2014-Aug-10 03:26N 43°14' E 007°20'1213.9
2014-Aug-10 02:32N 43°03' E 007°28'1413.9
2014-Aug-10 01:34N 42°52' E 007°38'1413.8
2014-Aug-10 00:33N 42°40' E 007°47'  

Dump ship's entire track history